LNI985 WAJJ-WAYY
Flight info
| Callsign | LNI985 |
|---|---|
| Flight time | 0h 49m |
| Altitude | 32000 |
| Route | ANLEP W68 OVGOD |
| Aircraft | B739/M-SDE2E3FGHIRWXY/LB1 |
Departure
| Time | 2026-04-26 00:15 |
|---|---|
| Airport | Dortheys Hiyo Eluay International Airport (WAJJ) |
Arrival
| Time | 2026-04-26 01:04 |
|---|---|
| Airport | Mozes Kilangin Airport (WAYY) |
| Time | Latitude | Longitude | Altitude | Speed | Heading |
|---|---|---|---|---|---|
| 2026-04-25 23:55 | -2.57129 | 140.51263 | 322 ft | 0 kts | 33° |
| 2026-04-26 00:01 | -2.57136 | 140.51259 | 299 ft | 3 kts | 40° |
| 2026-04-26 00:02 | -2.57145 | 140.51248 | 299 ft | 3 kts | 93° |
| 2026-04-26 00:02 | -2.57140 | 140.51240 | 295 ft | 3 kts | 146° |
| 2026-04-26 00:02 | -2.57123 | 140.51229 | 296 ft | 3 kts | 141° |
| 2026-04-26 00:02 | -2.57112 | 140.51218 | 297 ft | 1 kts | 125° |
| 2026-04-26 00:03 | -2.57109 | 140.51215 | 298 ft | 1 kts | 125° |
| 2026-04-26 00:06 | -2.57110 | 140.51215 | 298 ft | 0 kts | 125° |
| 2026-04-26 00:06 | -2.57111 | 140.51215 | 297 ft | 0 kts | 137° |
| 2026-04-26 00:07 | -2.57116 | 140.51217 | 296 ft | 2 kts | 149° |
| 2026-04-26 00:07 | -2.57140 | 140.51232 | 295 ft | 6 kts | 149° |
| 2026-04-26 00:07 | -2.57181 | 140.51263 | 295 ft | 9 kts | 130° |
| 2026-04-26 00:07 | -2.57221 | 140.51321 | 294 ft | 10 kts | 125° |
| 2026-04-26 00:08 | -2.57257 | 140.51372 | 296 ft | 9 kts | 129° |
| 2026-04-26 00:08 | -2.57318 | 140.51402 | 294 ft | 11 kts | 146° |
| 2026-04-26 00:08 | -2.57370 | 140.51469 | 293 ft | 14 kts | 127° |
| 2026-04-26 00:08 | -2.57431 | 140.51552 | 292 ft | 16 kts | 126° |
| 2026-04-26 00:09 | -2.57502 | 140.51647 | 290 ft | 18 kts | 123° |
| 2026-04-26 00:09 | -2.57580 | 140.51752 | 291 ft | 19 kts | 126° |
| 2026-04-26 00:09 | -2.57652 | 140.51849 | 288 ft | 16 kts | 127° |
| 2026-04-26 00:09 | -2.57717 | 140.51934 | 288 ft | 11 kts | 127° |
| 2026-04-26 00:10 | -2.57769 | 140.51944 | 287 ft | 7 kts | 212° |
| 2026-04-26 00:10 | -2.57812 | 140.51912 | 288 ft | 8 kts | 218° |
| 2026-04-26 00:10 | -2.57861 | 140.51887 | 290 ft | 8 kts | 178° |
| 2026-04-26 00:10 | -2.57908 | 140.51928 | 290 ft | 11 kts | 127° |
| 2026-04-26 00:11 | -2.57960 | 140.51996 | 287 ft | 14 kts | 127° |
| 2026-04-26 00:11 | -2.58023 | 140.52079 | 286 ft | 16 kts | 126° |
| 2026-04-26 00:11 | -2.58095 | 140.52174 | 284 ft | 18 kts | 127° |
| 2026-04-26 00:11 | -2.58178 | 140.52284 | 281 ft | 21 kts | 124° |
| 2026-04-26 00:12 | -2.58268 | 140.52406 | 280 ft | 22 kts | 127° |
| 2026-04-26 00:12 | -2.58364 | 140.52533 | 279 ft | 22 kts | 126° |
| 2026-04-26 00:12 | -2.58458 | 140.52657 | 278 ft | 22 kts | 127° |
| 2026-04-26 00:12 | -2.58550 | 140.52778 | 278 ft | 22 kts | 128° |
| 2026-04-26 00:13 | -2.58629 | 140.52885 | 277 ft | 17 kts | 127° |
| 2026-04-26 00:13 | -2.58667 | 140.52958 | 277 ft | 12 kts | 103° |
| 2026-04-26 00:13 | -2.58682 | 140.53008 | 277 ft | 6 kts | 112° |
| 2026-04-26 00:13 | -2.58701 | 140.53017 | 277 ft | 2 kts | 204° |
| 2026-04-26 00:14 | -2.58704 | 140.52999 | 277 ft | 3 kts | 274° |
| 2026-04-26 00:14 | -2.58692 | 140.52973 | 280 ft | 5 kts | 306° |
| 2026-04-26 00:14 | -2.58667 | 140.52940 | 277 ft | 10 kts | 306° |
| 2026-04-26 00:14 | -2.58502 | 140.52717 | 279 ft | 79 kts | 307° |
| 2026-04-26 00:15 | -2.58025 | 140.52082 | 286 ft | 146 kts | 307° |
| 2026-04-26 00:15 | -2.57315 | 140.51125 | 400 ft | 189 kts | 307° |
| 2026-04-26 00:15 | -2.56493 | 140.50077 | 1139 ft | 193 kts | 308° |
| 2026-04-26 00:15 | -2.55670 | 140.49024 | 2067 ft | 190 kts | 307° |
| 2026-04-26 00:16 | -2.55010 | 140.47886 | 2769 ft | 198 kts | 281° |
| 2026-04-26 00:16 | -2.55231 | 140.46493 | 3007 ft | 217 kts | 239° |
| 2026-04-26 00:16 | -2.56304 | 140.45353 | 3188 ft | 235 kts | 222° |
| 2026-04-26 00:16 | -2.57534 | 140.44207 | 3512 ft | 245 kts | 225° |
| 2026-04-26 00:17 | -2.58729 | 140.42975 | 4026 ft | 247 kts | 228° |
| 2026-04-26 00:17 | -2.59876 | 140.41663 | 4475 ft | 258 kts | 230° |
| 2026-04-26 00:17 | -2.61031 | 140.40220 | 4854 ft | 271 kts | 233° |
| 2026-04-26 00:17 | -2.62150 | 140.38716 | 5458 ft | 275 kts | 234° |
| 2026-04-26 00:18 | -2.63253 | 140.37146 | 6095 ft | 278 kts | 236° |
| 2026-04-26 00:18 | -2.64340 | 140.35530 | 6709 ft | 281 kts | 237° |
| 2026-04-26 00:18 | -2.65413 | 140.33880 | 7284 ft | 285 kts | 237° |
| 2026-04-26 00:18 | -2.66484 | 140.32193 | 7862 ft | 289 kts | 238° |
| 2026-04-26 00:19 | -2.67555 | 140.30473 | 8455 ft | 293 kts | 238° |
| 2026-04-26 00:19 | -2.68629 | 140.28728 | 9060 ft | 296 kts | 239° |
| 2026-04-26 00:19 | -2.69706 | 140.26963 | 9681 ft | 299 kts | 239° |
| 2026-04-26 00:19 | -2.70790 | 140.25178 | 10220 ft | 303 kts | 239° |
| 2026-04-26 00:20 | -2.71914 | 140.23320 | 10393 ft | 322 kts | 239° |
| 2026-04-26 00:20 | -2.73101 | 140.21349 | 10530 ft | 339 kts | 239° |
| 2026-04-26 00:20 | -2.74347 | 140.19276 | 10670 ft | 356 kts | 239° |
| 2026-04-26 00:20 | -2.75642 | 140.17117 | 10915 ft | 367 kts | 239° |
| 2026-04-26 00:21 | -2.76966 | 140.14909 | 11345 ft | 371 kts | 239° |
| 2026-04-26 00:21 | -2.78298 | 140.12687 | 11854 ft | 374 kts | 239° |
| 2026-04-26 00:21 | -2.79637 | 140.10453 | 12364 ft | 376 kts | 239° |
| 2026-04-26 00:21 | -2.80984 | 140.08204 | 12866 ft | 379 kts | 239° |
| 2026-04-26 00:22 | -2.82346 | 140.05930 | 13368 ft | 382 kts | 239° |
| 2026-04-26 00:22 | -2.83717 | 140.03640 | 13881 ft | 384 kts | 239° |
| 2026-04-26 00:22 | -2.85095 | 140.01338 | 14334 ft | 387 kts | 238° |
| 2026-04-26 00:22 | -2.86484 | 139.99017 | 14771 ft | 391 kts | 238° |
| 2026-04-26 00:23 | -2.87887 | 139.96674 | 15215 ft | 394 kts | 238° |
| 2026-04-26 00:23 | -2.89300 | 139.94315 | 15664 ft | 397 kts | 238° |
| 2026-04-26 00:23 | -2.90724 | 139.91936 | 16106 ft | 400 kts | 238° |
| 2026-04-26 00:23 | -2.92161 | 139.89536 | 16521 ft | 404 kts | 238° |
| 2026-04-26 00:24 | -2.93589 | 139.87150 | 16941 ft | 407 kts | 238° |
| 2026-04-26 00:24 | -2.95048 | 139.84713 | 17358 ft | 410 kts | 238° |
| 2026-04-26 00:24 | -2.96517 | 139.82259 | 17779 ft | 413 kts | 238° |
| 2026-04-26 00:24 | -2.97997 | 139.79785 | 18179 ft | 416 kts | 238° |
| 2026-04-26 00:25 | -2.99490 | 139.77291 | 18530 ft | 419 kts | 238° |
| 2026-04-26 00:25 | -3.00987 | 139.74789 | 18889 ft | 421 kts | 238° |
| 2026-04-26 00:25 | -3.02494 | 139.72270 | 19229 ft | 423 kts | 238° |
| 2026-04-26 00:25 | -3.04010 | 139.69737 | 19577 ft | 425 kts | 238° |
| 2026-04-26 00:26 | -3.05532 | 139.67192 | 19922 ft | 427 kts | 238° |
| 2026-04-26 00:26 | -3.07061 | 139.64635 | 20251 ft | 430 kts | 238° |
| 2026-04-26 00:26 | -3.08601 | 139.62061 | 20582 ft | 432 kts | 238° |
| 2026-04-26 00:26 | -3.10147 | 139.59475 | 20899 ft | 434 kts | 238° |
| 2026-04-26 00:27 | -3.11700 | 139.56879 | 21213 ft | 436 kts | 238° |
| 2026-04-26 00:27 | -3.13260 | 139.54270 | 21516 ft | 438 kts | 238° |
| 2026-04-26 00:27 | -3.14831 | 139.51644 | 21817 ft | 440 kts | 238° |
| 2026-04-26 00:27 | -3.16406 | 139.49009 | 22112 ft | 442 kts | 238° |
| 2026-04-26 00:28 | -3.17990 | 139.46360 | 22404 ft | 445 kts | 238° |
| 2026-04-26 00:28 | -3.19581 | 139.43699 | 22718 ft | 447 kts | 238° |
| 2026-04-26 00:28 | -3.21179 | 139.41026 | 22984 ft | 449 kts | 238° |
| 2026-04-26 00:28 | -3.22784 | 139.38341 | 23261 ft | 451 kts | 238° |
| 2026-04-26 00:29 | -3.24396 | 139.35643 | 23523 ft | 453 kts | 237° |
| 2026-04-26 00:29 | -3.26014 | 139.32936 | 23731 ft | 454 kts | 237° |
| 2026-04-26 00:29 | -3.27637 | 139.30220 | 23950 ft | 456 kts | 237° |
| 2026-04-26 00:29 | -3.29265 | 139.27495 | 24181 ft | 457 kts | 238° |
| 2026-04-26 00:30 | -3.30899 | 139.24760 | 24398 ft | 458 kts | 237° |
| 2026-04-26 00:30 | -3.32536 | 139.22020 | 24608 ft | 460 kts | 237° |
| 2026-04-26 00:30 | -3.34181 | 139.19266 | 24824 ft | 461 kts | 237° |
| 2026-04-26 00:30 | -3.35806 | 139.16545 | 25027 ft | 463 kts | 237° |
| 2026-04-26 00:31 | -3.37459 | 139.13776 | 25230 ft | 464 kts | 237° |
| 2026-04-26 00:31 | -3.39116 | 139.11001 | 25432 ft | 465 kts | 237° |
| 2026-04-26 00:31 | -3.40779 | 139.08217 | 25639 ft | 467 kts | 238° |
| 2026-04-26 00:31 | -3.42383 | 139.05332 | 25841 ft | 469 kts | 241° |
| 2026-04-26 00:32 | -3.43852 | 139.02464 | 26036 ft | 470 kts | 242° |
| 2026-04-26 00:32 | -3.45303 | 138.99526 | 26231 ft | 472 kts | 242° |
| 2026-04-26 00:32 | -3.48199 | 138.93612 | 26630 ft | 474 kts | 242° |
| 2026-04-26 00:33 | -3.49662 | 138.90649 | 26832 ft | 475 kts | 242° |
| 2026-04-26 00:33 | -3.51135 | 138.87685 | 26997 ft | 477 kts | 242° |
| 2026-04-26 00:33 | -3.52621 | 138.84711 | 27155 ft | 479 kts | 242° |
| 2026-04-26 00:33 | -3.54116 | 138.81726 | 27328 ft | 480 kts | 242° |
| 2026-04-26 00:34 | -3.55612 | 138.78742 | 27523 ft | 480 kts | 242° |
| 2026-04-26 00:34 | -3.57115 | 138.75747 | 27706 ft | 482 kts | 242° |
| 2026-04-26 00:34 | -3.58619 | 138.72745 | 27874 ft | 483 kts | 242° |
| 2026-04-26 00:34 | -3.60126 | 138.69739 | 28038 ft | 484 kts | 242° |
| 2026-04-26 00:35 | -3.61638 | 138.66721 | 28224 ft | 485 kts | 242° |
| 2026-04-26 00:35 | -3.63152 | 138.63699 | 28390 ft | 486 kts | 242° |
| 2026-04-26 00:35 | -3.64671 | 138.60666 | 28563 ft | 487 kts | 242° |
| 2026-04-26 00:35 | -3.66185 | 138.57641 | 28809 ft | 487 kts | 242° |
| 2026-04-26 00:36 | -3.67701 | 138.54613 | 29078 ft | 485 kts | 242° |
| 2026-04-26 00:36 | -3.69213 | 138.51593 | 29355 ft | 485 kts | 242° |
| 2026-04-26 00:36 | -3.70723 | 138.48577 | 29596 ft | 485 kts | 242° |
| 2026-04-26 00:36 | -3.71722 | 138.46581 | 29761 ft | 484 kts | 242° |
| 2026-04-26 00:37 | -3.73230 | 138.43568 | 30036 ft | 484 kts | 242° |
| 2026-04-26 00:37 | -3.74735 | 138.40559 | 30313 ft | 483 kts | 242° |
| 2026-04-26 00:37 | -3.76727 | 138.36579 | 30633 ft | 482 kts | 242° |
| 2026-04-26 00:37 | -3.78229 | 138.33577 | 30887 ft | 482 kts | 242° |
| 2026-04-26 00:38 | -3.79730 | 138.30576 | 31137 ft | 482 kts | 242° |
| 2026-04-26 00:38 | -3.81228 | 138.27582 | 31400 ft | 481 kts | 242° |
| 2026-04-26 00:38 | -3.82240 | 138.25559 | 31587 ft | 481 kts | 242° |
| 2026-04-26 00:38 | -3.83736 | 138.22568 | 31848 ft | 480 kts | 242° |
| 2026-04-26 00:39 | -3.85230 | 138.19580 | 32080 ft | 480 kts | 242° |
| 2026-04-26 00:39 | -3.86728 | 138.16583 | 32095 ft | 482 kts | 242° |
| 2026-04-26 00:39 | -3.89723 | 138.10591 | 32115 ft | 481 kts | 242° |
| 2026-04-26 00:40 | -3.92710 | 138.04614 | 32129 ft | 479 kts | 242° |
| 2026-04-26 00:40 | -3.95725 | 137.98680 | 32104 ft | 477 kts | 237° |
| 2026-04-26 00:41 | -3.99945 | 137.93619 | 32118 ft | 474 kts | 226° |
| 2026-04-26 00:41 | -4.04326 | 137.88741 | 32104 ft | 467 kts | 226° |
| 2026-04-26 00:42 | -4.08604 | 137.83883 | 32114 ft | 464 kts | 227° |
| 2026-04-26 00:42 | -4.10729 | 137.81448 | 31926 ft | 467 kts | 227° |
| 2026-04-26 00:42 | -4.12869 | 137.78992 | 31457 ft | 467 kts | 227° |
| 2026-04-26 00:43 | -4.14994 | 137.76551 | 30954 ft | 463 kts | 227° |
| 2026-04-26 00:43 | -4.17103 | 137.74129 | 30444 ft | 460 kts | 227° |
| 2026-04-26 00:43 | -4.19201 | 137.71722 | 29877 ft | 458 kts | 227° |
| 2026-04-26 00:43 | -4.21287 | 137.69329 | 29295 ft | 454 kts | 227° |
| 2026-04-26 00:44 | -4.23356 | 137.66956 | 28758 ft | 450 kts | 227° |
| 2026-04-26 00:44 | -4.25467 | 137.64734 | 28201 ft | 444 kts | 217° |
| 2026-04-26 00:44 | -4.28065 | 137.63131 | 27691 ft | 435 kts | 199° |
| 2026-04-26 00:44 | -4.30921 | 137.62226 | 27204 ft | 427 kts | 193° |
| 2026-04-26 00:45 | -4.33780 | 137.61471 | 26678 ft | 424 kts | 192° |
| 2026-04-26 00:45 | -4.36624 | 137.60736 | 26194 ft | 420 kts | 192° |
| 2026-04-26 00:45 | -4.39447 | 137.59996 | 25661 ft | 419 kts | 192° |
| 2026-04-26 00:45 | -4.42255 | 137.59245 | 25158 ft | 417 kts | 193° |
| 2026-04-26 00:46 | -4.45049 | 137.58484 | 24651 ft | 415 kts | 193° |
| 2026-04-26 00:46 | -4.47830 | 137.57720 | 24150 ft | 414 kts | 193° |
| 2026-04-26 00:46 | -4.50604 | 137.56954 | 23651 ft | 413 kts | 193° |
| 2026-04-26 00:46 | -4.53367 | 137.56191 | 23077 ft | 411 kts | 193° |
| 2026-04-26 00:47 | -4.56117 | 137.55433 | 22556 ft | 408 kts | 193° |
| 2026-04-26 00:47 | -4.58836 | 137.54683 | 22057 ft | 403 kts | 193° |
| 2026-04-26 00:47 | -4.61506 | 137.53947 | 21632 ft | 391 kts | 193° |
| 2026-04-26 00:47 | -4.64095 | 137.53232 | 21230 ft | 381 kts | 193° |
| 2026-04-26 00:48 | -4.66627 | 137.52535 | 20843 ft | 374 kts | 193° |
| 2026-04-26 00:48 | -4.69135 | 137.51844 | 20472 ft | 374 kts | 193° |
| 2026-04-26 00:48 | -4.71647 | 137.51153 | 20102 ft | 375 kts | 193° |
| 2026-04-26 00:48 | -4.74181 | 137.50456 | 19703 ft | 378 kts | 193° |
| 2026-04-26 00:49 | -4.76718 | 137.49756 | 19310 ft | 378 kts | 194° |
| 2026-04-26 00:49 | -4.79253 | 137.49057 | 18924 ft | 378 kts | 194° |
| 2026-04-26 00:49 | -4.81781 | 137.48360 | 18529 ft | 376 kts | 194° |
| 2026-04-26 00:49 | -4.84258 | 137.47551 | 18137 ft | 374 kts | 206° |
| 2026-04-26 00:50 | -4.86368 | 137.46049 | 17729 ft | 372 kts | 225° |
| 2026-04-26 00:50 | -4.87960 | 137.44023 | 17362 ft | 368 kts | 234° |
| 2026-04-26 00:50 | -4.89409 | 137.41921 | 16963 ft | 365 kts | 235° |
| 2026-04-26 00:50 | -4.90823 | 137.39823 | 16580 ft | 362 kts | 235° |
| 2026-04-26 00:51 | -4.92232 | 137.37742 | 16213 ft | 359 kts | 235° |
| 2026-04-26 00:51 | -4.93645 | 137.35677 | 15753 ft | 359 kts | 234° |
| 2026-04-26 00:51 | -4.95055 | 137.33637 | 15304 ft | 353 kts | 235° |
| 2026-04-26 00:51 | -4.96455 | 137.31622 | 14718 ft | 352 kts | 235° |
| 2026-04-26 00:52 | -4.97852 | 137.29617 | 14200 ft | 349 kts | 235° |
| 2026-04-26 00:52 | -4.99231 | 137.27638 | 13726 ft | 344 kts | 235° |
| 2026-04-26 00:52 | -5.00593 | 137.25683 | 13130 ft | 340 kts | 235° |
| 2026-04-26 00:52 | -5.01932 | 137.23761 | 12667 ft | 332 kts | 236° |
| 2026-04-26 00:53 | -5.02893 | 137.21703 | 12244 ft | 322 kts | 258° |
| 2026-04-26 00:53 | -5.02977 | 137.19511 | 11907 ft | 310 kts | 281° |
| 2026-04-26 00:53 | -5.02315 | 137.17505 | 11709 ft | 300 kts | 298° |
| 2026-04-26 00:53 | -5.01098 | 137.15830 | 11476 ft | 297 kts | 315° |
| 2026-04-26 00:54 | -4.99614 | 137.14391 | 11259 ft | 298 kts | 317° |
| 2026-04-26 00:54 | -4.98082 | 137.12982 | 11050 ft | 300 kts | 317° |
| 2026-04-26 00:54 | -4.96536 | 137.11566 | 10825 ft | 302 kts | 317° |
| 2026-04-26 00:54 | -4.94995 | 137.10144 | 10605 ft | 300 kts | 317° |
| 2026-04-26 00:55 | -4.93500 | 137.08755 | 10459 ft | 286 kts | 317° |
| 2026-04-26 00:55 | -4.92074 | 137.07425 | 10062 ft | 283 kts | 317° |
| 2026-04-26 00:55 | -4.90642 | 137.06084 | 9575 ft | 282 kts | 317° |
| 2026-04-26 00:55 | -4.89212 | 137.04744 | 9096 ft | 280 kts | 317° |
| 2026-04-26 00:56 | -4.87792 | 137.03412 | 8644 ft | 278 kts | 317° |
| 2026-04-26 00:56 | -4.86384 | 137.02093 | 8189 ft | 276 kts | 317° |
| 2026-04-26 00:56 | -4.84907 | 137.00886 | 7713 ft | 274 kts | 333° |
| 2026-04-26 00:56 | -4.83081 | 137.00419 | 7223 ft | 273 kts | 2° |
| 2026-04-26 00:57 | -4.81250 | 137.00833 | 6789 ft | 270 kts | 26° |
| 2026-04-26 00:57 | -4.79652 | 137.01805 | 6369 ft | 268 kts | 34° |
| 2026-04-26 00:57 | -4.78112 | 137.02871 | 6017 ft | 269 kts | 35° |
| 2026-04-26 00:57 | -4.76576 | 137.03940 | 5709 ft | 268 kts | 35° |
| 2026-04-26 00:58 | -4.75042 | 137.04995 | 5412 ft | 267 kts | 34° |
| 2026-04-26 00:58 | -4.73514 | 137.06035 | 5122 ft | 265 kts | 34° |
| 2026-04-26 00:58 | -4.71990 | 137.07067 | 4836 ft | 263 kts | 34° |
| 2026-04-26 00:58 | -4.70476 | 137.08090 | 4543 ft | 262 kts | 34° |
| 2026-04-26 00:59 | -4.68913 | 137.09007 | 4223 ft | 261 kts | 18° |
| 2026-04-26 00:59 | -4.67132 | 137.09039 | 3953 ft | 259 kts | 342° |
| 2026-04-26 00:59 | -4.65614 | 137.08102 | 3669 ft | 258 kts | 319° |
| 2026-04-26 00:59 | -4.64413 | 137.06823 | 3573 ft | 245 kts | 310° |
| 2026-04-26 01:00 | -4.63422 | 137.05498 | 3444 ft | 230 kts | 304° |
| 2026-04-26 01:00 | -4.62580 | 137.04205 | 3282 ft | 215 kts | 303° |
| 2026-04-26 01:00 | -4.61801 | 137.02958 | 3020 ft | 207 kts | 303° |
| 2026-04-26 01:00 | -4.61057 | 137.01759 | 2747 ft | 198 kts | 302° |
| 2026-04-26 01:01 | -4.60350 | 137.00623 | 2497 ft | 186 kts | 303° |
| 2026-04-26 01:01 | -4.59696 | 136.99569 | 2341 ft | 170 kts | 303° |
| 2026-04-26 01:01 | -4.59078 | 136.98573 | 2046 ft | 167 kts | 303° |
| 2026-04-26 01:01 | -4.58477 | 136.97622 | 1916 ft | 159 kts | 304° |
| 2026-04-26 01:02 | -4.57913 | 136.96685 | 1687 ft | 151 kts | 300° |
| 2026-04-26 01:02 | -4.57365 | 136.95782 | 1449 ft | 153 kts | 304° |
| 2026-04-26 01:02 | -4.56788 | 136.94883 | 1281 ft | 155 kts | 303° |
| 2026-04-26 01:02 | -4.56214 | 136.93966 | 1084 ft | 155 kts | 303° |
| 2026-04-26 01:03 | -4.55646 | 136.93046 | 882 ft | 155 kts | 301° |
| 2026-04-26 01:03 | -4.55100 | 136.92116 | 616 ft | 155 kts | 300° |
| 2026-04-26 01:03 | -4.54555 | 136.91194 | 399 ft | 154 kts | 304° |
| 2026-04-26 01:03 | -4.53962 | 136.90314 | 247 ft | 154 kts | 305° |
| 2026-04-26 01:04 | -4.53387 | 136.89415 | 101 ft | 151 kts | 302° |
| 2026-04-26 01:04 | -4.52890 | 136.88617 | 97 ft | 115 kts | 302° |
| 2026-04-26 01:04 | -4.52626 | 136.88197 | 96 ft | 34 kts | 301° |
| 2026-04-26 01:04 | -4.52533 | 136.88048 | 97 ft | 19 kts | 302° |
| 2026-04-26 01:05 | -4.52492 | 136.87982 | 96 ft | 11 kts | 301° |
| 2026-04-26 01:05 | -4.52458 | 136.87919 | 95 ft | 10 kts | 289° |
| 2026-04-26 01:05 | -4.52437 | 136.87859 | 96 ft | 9 kts | 291° |
| 2026-04-26 01:05 | -4.52423 | 136.87845 | 95 ft | 2 kts | 356° |
| 2026-04-26 01:06 | -4.52419 | 136.87856 | 95 ft | 2 kts | 102° |
| 2026-04-26 01:06 | -4.52433 | 136.87883 | 96 ft | 7 kts | 119° |
| 2026-04-26 01:06 | -4.52465 | 136.87933 | 95 ft | 10 kts | 123° |
| 2026-04-26 01:06 | -4.52509 | 136.88003 | 96 ft | 13 kts | 122° |
| 2026-04-26 01:07 | -4.52559 | 136.88085 | 98 ft | 15 kts | 121° |
| 2026-04-26 01:07 | -4.52610 | 136.88155 | 98 ft | 11 kts | 147° |
| 2026-04-26 01:07 | -4.52668 | 136.88148 | 97 ft | 9 kts | 208° |
| 2026-04-26 01:07 | -4.52711 | 136.88122 | 97 ft | 7 kts | 211° |
| 2026-04-26 01:08 | -4.52761 | 136.88106 | 97 ft | 8 kts | 179° |
| 2026-04-26 01:08 | -4.52802 | 136.88143 | 98 ft | 9 kts | 122° |
| 2026-04-26 01:08 | -4.52836 | 136.88195 | 98 ft | 6 kts | 125° |
| 2026-04-26 01:08 | -4.52857 | 136.88227 | 97 ft | 2 kts | 122° |
| 2026-04-26 01:09 | -4.52869 | 136.88245 | 98 ft | 3 kts | 122° |
| 2026-04-26 01:09 | -4.52882 | 136.88259 | 101 ft | 1 kts | 156° |
| 2026-04-26 01:09 | -4.52894 | 136.88259 | 98 ft | 3 kts | 181° |
| 2026-04-26 01:09 | -4.52913 | 136.88256 | 99 ft | 3 kts | 198° |
| 2026-04-26 01:10 | -4.52930 | 136.88248 | 97 ft | 3 kts | 207° |
| 2026-04-26 01:10 | -4.52938 | 136.88243 | 97 ft | 0 kts | 209° |
| 2026-04-26 01:10 | -4.52939 | 136.88243 | 97 ft | 0 kts | 209° |